Logo AVAMET
Benvolgut visitant, si us plau, ingressa Recuperar contrasenya
AVAMET paisatges

Inforatge Riola

Dades diàries. Acumulats / Últims 30 dies disponibles

Data Temperatura (°C) Humitat rel. (%) Pressió rel. (hPa) Vent (km/h) Precipitació
Mínima Mitjana Màxima Amplitud
tèrmica
Mínima Mitjana Màxima Mínima Mitjana Màxima Predom. Mitjana Ràfega
màxima
Total
(mm)
Índex-n
Mínima Mitjana Màxima Mínima Mitjana Màxima n
0 a 1
P0 max
mm 5'
Dades mensuals acumulades fins l'últim dia disponible
08/2020 22,9 23,8 25,3 27,4 29,0 31,3 33,9 11,0 47 78 94 1.011 1.014 1.017   5,7 38,6 0,2
Dades anuals acumulades fins l'últim dia disponible
2020 3,1 14,3 25,3 18,4 10,4 23,2 33,9 30,8 0 74 95 1.000 1.018 1.035   4,9 74,0 468,6
Últims 30 dies disponibles
06-08-2020 23,6     27,0     31,0 7,4 47 74 92 1.014 1.016 1.017 S 6,2 38,6 0,0
05-08-2020 23,7     27,3     31,3 7,6 60 77 91 1.011 1.013 1.014 S 6,0 33,8 0,0
04-08-2020 23,4     27,0     31,1 7,7 56 76 90 1.012 1.014 1.015 SSE 7,1 32,2 0,0
03-08-2020 25,3     27,2     29,0 3,7 63 77 88 1.011 1.012 1.014 SE 5,4 29,0 0,0
02-08-2020 22,9     27,6     31,3 8,4 65 82 94 1.012 1.014 1.016 S 5,5 30,6 0,2
01-08-2020 24,0     28,3     33,9 9,9 63 83 93 1.011 1.014 1.016 S 3,9 25,7 0,0
31-07-2020 22,3     28,2     33,8 11,5 44 70 91 1.013 1.015 1.017 S 3,9 20,9 0,0
30-07-2020 23,2     27,1     31,1 7,9 64 80 94 1.014 1.016 1.017 S 3,4 22,5 0,0
29-07-2020 23,7     26,9     30,7 7,0 72 83 93 1.014 1.016 1.017 S 4,0 27,4 0,0
28-07-2020 22,8     27,2     31,3 8,5 67 79 91 1.014 1.015 1.016 SSO 4,2 24,1 0,0
27-07-2020 22,6     27,3     32,1 9,5 48 74 91 1.013 1.016 1.018 SSO 5,3 35,4 0,0
26-07-2020 22,6     26,5     29,8 7,2 68 80 92 1.014 1.015 1.017 SSE 4,4 25,7 0,0
25-07-2020 23,1     26,8     31,3 8,2 46 75 90 1.013 1.014 1.016 SSO 6,0 30,6 0,0
24-07-2020 21,7     26,3     31,8 10,1 53 71 86 1.012 1.014 1.015 SSO 4,7 22,5 0,0
23-07-2020 20,8     27,0     33,6 12,8 26 59 85 1.013 1.015 1.018 SSO 6,0 27,4 0,0
22-07-2020 22,3     26,1     30,2 7,9 59 77 91 1.017 1.018 1.021 S 3,6 25,7 0,0
21-07-2020 21,9     25,7     29,1 7,2 64 81 93 1.017 1.019 1.020 SSE 4,1 29,0 0,0
20-07-2020 23,6     26,2     30,1 6,5 62 79 89 1.015 1.016 1.019 S 4,7 25,7 0,0
19-07-2020 22,4     26,8     32,3 9,9 44 74 91 1.012 1.015 1.016 SSO 6,4 32,2 0,0
18-07-2020 21,8     25,9     29,9 8,1 59 77 93 1.013 1.015 1.017 SSE 5,5 32,2 0,0
17-07-2020 21,2     25,1     29,4 8,2 62 78 91 1.014 1.016 1.018 S 6,6 32,2 0,0
16-07-2020 21,0     25,4     29,0 8,0 0 71 88 1.016 1.018 1.020 S 7,3 33,8 0,0
15-07-2020 19,1     24,0     29,3 10,2 50 75 91 1.015 1.017 1.018 SSO 6,2 29,0 0,0
14-07-2020 19,3         27,4 8,1 59 79 89 1.013 1.016 1.019 WNW 1,1 14,5 9,2
13-07-2020 20,3     25,2     29,8 9,5 59 78 94 1.017 1.018 1.021 WNW 3,9 24,1 0,2
12-07-2020 21,7     24,4     27,9 6,2 73 86 92 1.017 1.018 1.021 ENE 4,5 29,0 4,6 0,32 1,00
11-07-2020 22,0     25,3     28,9 6,9 69 80 91 1.015 1.017 1.019 ENE 4,2 24,1 0,0
10-07-2020 21,2     23,7     28,9 7,7 54 77 92 1.013 1.015 1.016 WNW 1,9 11,3 0,0
09-07-2020 22,6     24,7     27,9 5,3 43 76 91 1.014 1.016 1.017 WNW 3,2 22,5 0,0
08-07-2020 22,9     25,6     29,5 6,6 50 80 92 1.015 1.017 1.018 ESE 5,8 32,2 0,0
Últims 13 mesos disponibles
07/2020 19,1 21,9 23,7 26,0 27,4 30,3 33,8 14,7 59 77 86 1.011 1.016 1.020 SSO 4,8 35,4 14,0
06/2020 15,1 18,9 22,6 23,4 21,4 28,4 33,3 18,2 37 71 84 1.005 1.014 1.021 WNW 5,8 38,6 37,6
05/2020 12,9 16,1 18,8 21,0 19,7 26,1 33,9 21,0 51 70 81 1.006 1.015 1.026 SW 4,8 43,5 21,6
04/2020 8,5 12,5 17,8 16,0 15,9 20,3 27,3 18,8 50 79 93 1.006 1.016 1.026 SW 4,2 38,6 62,6
03/2020 5,4 10,5 16,3 14,3 10,8 18,7 24,3 18,9 44 73 92 1.007 1.018 1.027 SW 5,6 74,0 101,0
02/2020 5,5 9,9 15,5 14,7 14,8 20,7 27,0 21,5 49 73 88 1.014 1.026 1.033 SW 4,4 38,6 2,4
01/2020 3,1 7,5 14,4 11,5 10,4 16,1 20,8 17,7 58 76 93 1.016 1.024 1.031 SW 4,5 64,4 229,2
12/2019 7,8 11,1 18,0 14,6 14,1 18,3 25,9 18,1 50 72 91 1.003 1.019 1.033 SW 6,2 72,4 129,0
11/2019 6,1 11,6 21,2 15,5 16,1 20,1 28,2 22,1 48 60 81 999 1.011 1.019 SW 7,0 53,1 10,4
10/2019 11,1 15,9 19,5 20,0 16,1 25,6 35,4 24,3 47 72 90 1.008 1.017 1.022 SW 3,5 33,8 49,6
09/2019 14,9 19,8 22,6 23,9 22,2 28,4 34,6 19,7 0 73 86 0 984 1.024 S 4,3 48,3 78,2
08/2019 18,5 22,0 25,8 26,5 27,7 31,4 41,7 23,2 47 73 82 1.010 1.016 1.020 S 4,5 42,6 5,0
07/2019 20,2 22,0 24,7 26,8 28,2 31,2 37,5 17,3 50 71 82 1.006 1.014 1.022 SSE 5,1 45,0 2,6
Tots els anys disponibles
2019 1,8 14,0 25,8 18,6 13,2 23,7 41,7 39,9 0 69 95 0 1.014 1.034 S 5,0 72,4 442,0
2018 1,4 14,2 26,9 18,5 8,5 23,3 37,1 35,7 39 71 94 994 1.017 1.036 SSO 4,6 61,1 718,2
Temperatura (°C)
Humitat relativa (%)
Velocitat del vent i ràfega màxima (km/h)
Direcció del vent (°)
Pressió (hPa)
Precipitació (mm)
Nota sobre les dades: s'avisa a l'usuari de la provisionalitat i no oficialitat d'aquestes dades
Logo AVAMET blanc
Web allotjada a Sollutia
Llicència de Creative CommonsLa web d'AVAMET i els seus continguts estan subjectes a una llicència de
Reconeixement - No Comercial - Compartir igual
Últimes estacions: Torremocha del Jiloca (Limítrofe/Soci), Orihuela - Arneva (MeteOrihuela), Enguera - Antolí (Soci), Vilamarxant - La Pedrera (Soci), Càlig (Ajuntament Soci), Quesa - Hotel La Rocha (Soci), Agres - Les Eres (Soci) - - -